Time;durP1;ratioP1;P1;durP2;ratioP2;P2;SDS_P1;SDS_P2;PMS_P1;PMS_P2;Temp;Humidity;BMP_temperature;BMP_pressure;BME280_temperature;BME280_humidity;BME280_pressure;Samples;Min_cycle;Max_cycle;Signal;HPM_P1;HPM_P2
2021/06/15 00:01:32;;;;;;;0.10;0.10;;;16.70;72.50;;;;;;5033059;28;20021;-73
2021/06/15 00:03:58;;;;;;;0.10;0.10;;;16.70;72.40;;;;;;5033132;28;20056;-73
2021/06/15 00:06:24;;;;;;;0.20;0.20;;;16.60;72.50;;;;;;5051153;28;20025;-73
2021/06/15 00:08:49;;;;;;;0.47;0.47;;;16.50;73.10;;;;;;5051295;28;20029;-73
2021/06/15 00:11:15;;;;;;;0.17;0.17;;;16.20;73.90;;;;;;5051100;28;20104;-73
2021/06/15 00:13:41;;;;;;;0.20;0.20;;;16.30;74.40;;;;;;5053201;28;20098;-73
2021/06/15 00:16:07;;;;;;;0.28;0.28;;;16.40;74.20;;;;;;5036600;28;20029;-73
2021/06/15 00:18:33;;;;;;;0.20;0.20;;;16.50;73.50;;;;;;5054474;28;20025;-73
2021/06/15 00:20:59;;;;;;;0.10;0.10;;;16.60;73.10;;;;;;5036627;28;20049;-73
2021/06/15 00:23:25;;;;;;;0.20;0.20;;;16.60;72.80;;;;;;5054583;28;20429;-73
2021/06/15 00:25:51;;;;;;;0.70;0.68;;;16.40;73.30;;;;;;5054561;28;20025;-73
2021/06/15 00:28:17;;;;;;;0.57;0.57;;;16.00;74.60;;;;;;5036580;28;20033;-73
2021/06/15 00:30:43;;;;;;;0.55;0.55;;;15.80;75.50;;;;;;5053931;28;20033;-73
2021/06/15 00:33:08;;;;;;;0.77;0.60;;;15.60;77.00;;;;;;5054315;28;20464;-73
2021/06/15 00:35:34;;;;;;;0.35;0.35;;;15.40;77.20;;;;;;5036463;28;20056;-73
2021/06/15 00:38:00;;;;;;;0.17;0.17;;;15.50;77.00;;;;;;5054268;28;20383;-73
2021/06/15 00:40:26;;;;;;;0.10;0.10;;;15.50;77.10;;;;;;5054176;28;20021;-73
2021/06/15 00:42:52;;;;;;;1.67;0.80;;;15.70;76.60;;;;;;5036175;28;20033;-73
2021/06/15 00:45:24;;;;;;;0.10;0.10;;;15.90;75.40;;;;;;5054421;28;20069;-73
2021/06/15 00:47:50;;;;;;;0.57;0.40;;;15.90;75.10;;;;;;5036053;28;20488;-73
2021/06/15 00:50:21;;;;;;;0.20;0.20;;;15.80;75.20;;;;;;5036132;28;20063;-73
2021/06/15 00:52:46;;;;;;;0.68;0.28;;;15.70;75.60;;;;;;5036051;28;20117;-73
2021/06/15 00:55:13;;;;;;;0.47;0.47;;;15.60;75.80;;;;;;5053753;28;20112;-73
2021/06/15 00:57:39;;;;;;;0.20;0.20;;;15.60;76.00;;;;;;5053577;28;20430;-73
2021/06/15 01:00:07;;;;;;;0.20;0.20;;;15.70;76.20;;;;;;5053843;28;20092;-73
2021/06/15 01:02:33;;;;;;;0.30;0.30;;;15.80;75.30;;;;;;5053728;28;20021;-73
2021/06/15 01:05:01;;;;;;;0.20;0.20;;;15.80;75.20;;;;;;5053773;28;20389;-73
2021/06/15 01:07:33;;;;;;;0.40;0.40;;;15.70;76.10;;;;;;5035707;28;20033;-73
2021/06/15 01:10:09;;;;;;;0.20;0.20;;;15.80;75.70;;;;;;5035713;28;20021;-73
2021/06/15 01:12:57;;;;;;;0.20;0.20;;;15.80;76.00;;;;;;5019215;28;20120;-73
2021/06/15 01:15:53;;;;;;;0.35;0.35;;;15.80;76.10;;;;;;5053575;28;20025;-74
2021/06/15 01:18:22;;;;;;;0.20;0.20;;;15.90;75.60;;;;;;5053270;28;20028;-73
2021/06/15 01:20:55;;;;;;;0.10;0.10;;;15.80;75.10;;;;;;5053470;28;20025;-73
2021/06/15 01:23:39;;;;;;;0.80;0.73;;;15.60;76.20;;;;;;5053369;28;20127;-73
2021/06/15 01:26:08;;;;;;;0.45;0.45;;;15.60;76.20;;;;;;5052601;28;20028;-73
2021/06/15 01:28:41;;;;;;;0.35;0.35;;;15.60;76.10;;;;;;5053044;28;20025;-73
2021/06/15 01:31:18;;;;;;;0.22;0.22;;;15.50;76.70;;;;;;5053107;28;20113;-73
2021/06/15 01:33:52;;;;;;;1.27;0.65;;;15.50;76.40;;;;;;5035378;28;20082;-73
2021/06/15 01:36:21;;;;;;;0.30;0.30;;;15.50;76.60;;;;;;5053127;28;20109;-73
2021/06/15 01:38:57;;;;;;;0.77;0.77;;;15.40;76.60;;;;;;5052699;28;20017;-73
2021/06/15 01:41:41;;;;;;;0.60;0.60;;;15.50;76.30;;;;;;5052905;28;20074;-73
2021/06/15 01:44:11;;;;;;;0.25;0.25;;;15.30;76.90;;;;;;5035079;28;20024;-73
2021/06/15 01:47:01;;;;;;;0.20;0.20;;;15.20;77.60;;;;;;5034954;28;20032;-73
2021/06/15 01:49:30;;;;;;;0.20;0.20;;;15.20;78.00;;;;;;5035035;28;20385;-73
2021/06/15 01:51:58;;;;;;;2.60;1.17;;;15.30;77.10;;;;;;5034804;28;20112;-73
2021/06/15 01:54:25;;;;;;;0.40;0.40;;;15.30;77.60;;;;;;5052748;28;20032;-73
2021/06/15 01:56:54;;;;;;;0.20;0.20;;;15.20;77.80;;;;;;5034809;28;20024;-73
2021/06/15 01:59:24;;;;;;;0.40;0.40;;;15.10;77.70;;;;;;5053138;28;20521;-73
2021/06/15 02:01:56;;;;;;;0.60;0.60;;;15.30;77.40;;;;;;5034614;28;20049;-73
2021/06/15 02:04:25;;;;;;;0.20;0.20;;;15.40;77.20;;;;;;5052687;28;20446;-73
2021/06/15 02:06:53;;;;;;;0.20;0.20;;;15.50;77.00;;;;;;5052441;28;20358;-73
2021/06/15 02:09:21;;;;;;;0.20;0.20;;;15.40;76.90;;;;;;5034737;28;20469;-73
2021/06/15 02:11:47;;;;;;;0.17;0.17;;;15.30;77.40;;;;;;5034692;28;20104;-73
2021/06/15 02:14:19;;;;;;;0.20;0.20;;;15.30;77.20;;;;;;5052288;28;20021;-73
2021/06/15 02:16:49;;;;;;;0.20;0.20;;;15.30;78.10;;;;;;5052372;28;20036;-73
2021/06/15 02:19:18;;;;;;;0.20;0.20;;;15.40;77.80;;;;;;5052277;28;20102;-73
2021/06/15 02:21:49;;;;;;;0.20;0.20;;;15.50;76.70;;;;;;5034411;28;20481;-73
2021/06/15 02:24:17;;;;;;;0.20;0.20;;;15.60;76.10;;;;;;5052300;28;20021;-73
2021/06/15 02:26:45;;;;;;;0.25;0.25;;;15.80;75.80;;;;;;5052111;28;20025;-73
2021/06/15 02:29:11;;;;;;;0.20;0.20;;;15.80;75.10;;;;;;5051955;28;20108;-73
2021/06/15 02:31:43;;;;;;;0.20;0.20;;;15.60;76.70;;;;;;5051798;28;20066;-73
2021/06/15 02:34:13;;;;;;;0.30;0.30;;;15.40;76.40;;;;;;5034275;28;20116;-73
2021/06/15 02:36:42;;;;;;;0.20;0.20;;;15.40;77.40;;;;;;5033733;28;20304;-73
2021/06/15 02:39:13;;;;;;;1.23;1.10;;;15.40;76.90;;;;;;5017819;28;20031;-73
2021/06/15 02:41:41;;;;;;;0.47;0.47;;;15.30;77.00;;;;;;5052096;28;20433;-73
2021/06/15 02:44:08;;;;;;;0.20;0.20;;;15.10;78.10;;;;;;5034151;28;20017;-73
2021/06/15 02:46:36;;;;;;;0.20;0.20;;;15.00;78.70;;;;;;5034256;28;20132;-73
2021/06/15 02:49:18;;;;;;;0.10;0.10;;;15.00;78.50;;;;;;5051680;28;20068;-73
2021/06/15 02:51:53;;;;;;;0.20;0.20;;;14.90;78.70;;;;;;5051729;28;20108;-73
2021/06/15 02:54:32;;;;;;;2.47;0.68;;;14.90;79.10;;;;;;5052121;28;20033;-73
2021/06/15 02:56:58;;;;;;;0.20;0.20;;;14.80;79.20;;;;;;5017449;28;20124;-73
2021/06/15 02:59:24;;;;;;;0.10;0.10;;;14.90;79.30;;;;;;5033988;28;20546;-73
2021/06/15 03:01:52;;;;;;;0.28;0.28;;;14.80;79.20;;;;;;5051930;28;20025;-73
2021/06/15 03:04:18;;;;;;;0.20;0.20;;;14.90;78.90;;;;;;5051704;28;20020;-73
2021/06/15 03:06:44;;;;;;;0.65;0.65;;;15.00;78.80;;;;;;5051689;28;20078;-73
2021/06/15 03:09:12;;;;;;;0.20;0.20;;;15.00;78.20;;;;;;5051569;28;20481;-73
2021/06/15 03:11:44;;;;;;;0.20;0.20;;;14.90;78.80;;;;;;5051685;28;20033;-73
2021/06/15 03:14:25;;;;;;;0.22;0.22;;;14.70;79.10;;;;;;5033565;28;20021;-73
2021/06/15 03:16:56;;;;;;;0.20;0.20;;;14.70;79.40;;;;;;5033786;28;20036;-73
2021/06/15 03:19:55;;;;;;;0.85;0.85;;;14.60;79.80;;;;;;5051493;28;20049;-73
2021/06/15 03:22:23;;;;;;;0.20;0.20;;;14.50;80.20;;;;;;5043317;28;20372;-73
2021/06/15 03:25:09;;;;;;;0.57;0.57;;;14.70;79.90;;;;;;5033761;28;20079;-73
2021/06/15 03:27:48;;;;;;;0.30;0.30;;;14.80;79.50;;;;;;5033495;28;20500;-73
2021/06/15 03:30:15;;;;;;;0.60;0.57;;;14.90;79.20;;;;;;5051711;28;20029;-74
2021/06/15 03:32:46;;;;;;;0.20;0.20;;;15.00;79.30;;;;;;5033717;28;20044;-73
2021/06/15 03:35:14;;;;;;;0.20;0.20;;;15.00;78.80;;;;;;5051369;28;20056;-73
2021/06/15 03:37:52;;;;;;;0.20;0.20;;;14.90;79.60;;;;;;5051322;28;20025;-73
2021/06/15 03:40:21;;;;;;;1.45;1.45;;;14.80;79.70;;;;;;5033658;28;20017;-73
2021/06/15 03:42:50;;;;;;;0.40;0.40;;;14.70;80.30;;;;;;5051119;28;20116;-73
2021/06/15 03:45:17;;;;;;;0.30;0.30;;;14.60;80.90;;;;;;5033578;28;20029;-73
2021/06/15 03:47:46;;;;;;;0.30;0.30;;;14.60;80.90;;;;;;5051799;28;20059;-73
2021/06/15 03:50:15;;;;;;;0.20;0.20;;;14.70;80.80;;;;;;5037107;28;20037;-73
2021/06/15 03:52:42;;;;;;;0.20;0.20;;;14.80;80.40;;;;;;5055549;28;20021;-73
2021/06/15 03:55:11;;;;;;;0.47;0.45;;;14.80;80.90;;;;;;5037273;28;20473;-73
2021/06/15 03:57:42;;;;;;;0.22;0.22;;;14.70;81.00;;;;;;5036797;28;20125;-73
2021/06/15 04:00:11;;;;;;;0.20;0.20;;;14.80;81.20;;;;;;5054999;28;20021;-73
2021/06/15 04:02:39;;;;;;;0.20;0.20;;;15.00;80.30;;;;;;5054902;28;20076;-73
2021/06/15 04:05:07;;;;;;;0.95;0.95;;;15.00;80.00;;;;;;5055065;28;20032;-73
2021/06/15 04:07:33;;;;;;;0.20;0.20;;;14.90;80.30;;;;;;5054663;28;20033;-73
2021/06/15 04:10:00;;;;;;;0.20;0.20;;;15.00;80.00;;;;;;5054560;28;20102;-73
2021/06/15 04:12:27;;;;;;;0.17;0.17;;;15.20;79.80;;;;;;5054622;28;20025;-73
2021/06/15 04:14:55;;;;;;;0.20;0.20;;;15.20;79.30;;;;;;5036734;28;20480;-73
2021/06/15 04:17:29;;;;;;;0.22;0.22;;;15.10;79.50;;;;;;5054614;28;20472;-73
2021/06/15 04:19:57;;;;;;;0.28;0.28;;;15.20;79.60;;;;;;5054621;28;20056;-73
2021/06/15 04:22:28;;;;;;;0.15;0.15;;;15.10;80.30;;;;;;5054419;28;20017;-73
2021/06/15 04:24:56;;;;;;;0.20;0.20;;;15.20;80.10;;;;;;5054708;28;20032;-73
2021/06/15 04:27:25;;;;;;;0.20;0.20;;;15.30;79.90;;;;;;5019895;28;20446;-74
2021/06/15 04:29:55;;;;;;;0.20;0.20;;;15.50;79.70;;;;;;5054488;28;20542;-73
2021/06/15 04:32:29;;;;;;;3.33;0.68;;;15.50;79.20;;;;;;5054173;28;20037;-73
2021/06/15 04:35:04;;;;;;;0.20;0.20;;;15.50;79.20;;;;;;5054289;28;20033;-73
2021/06/15 04:37:31;;;;;;;0.80;0.50;;;15.60;79.30;;;;;;5036285;28;20063;-74
2021/06/15 04:40:10;;;;;;;0.20;0.20;;;15.80;79.10;;;;;;5054054;28;20052;-73
2021/06/15 04:42:54;;;;;;;0.20;0.20;;;16.00;78.20;;;;;;5054166;28;20116;-73
2021/06/15 04:45:25;;;;;;;0.45;0.45;;;16.10;77.20;;;;;;5054095;28;20078;-73
2021/06/15 04:48:02;;;;;;;0.20;0.20;;;16.20;77.30;;;;;;5036108;28;20083;-73
2021/06/15 04:50:30;;;;;;;0.20;0.20;;;16.20;78.20;;;;;;5036049;28;20025;-73
2021/06/15 04:52:58;;;;;;;0.10;0.10;;;16.10;78.40;;;;;;5019545;28;20025;-73
2021/06/15 04:55:28;;;;;;;0.20;0.20;;;16.20;79.30;;;;;;5035935;28;20021;-74
2021/06/15 04:57:56;;;;;;;0.20;0.20;;;16.30;79.10;;;;;;5035937;28;20016;-73
2021/06/15 05:00:24;;;;;;;0.10;0.10;;;16.40;79.00;;;;;;5053521;28;20388;-73
2021/06/15 05:02:51;;;;;;;0.20;0.20;;;16.50;78.70;;;;;;5066798;28;20054;-73
2021/06/15 05:05:19;;;;;;;0.20;0.20;;;16.80;78.20;;;;;;5081374;28;20027;-73
2021/06/15 05:07:45;;;;;;;0.57;0.40;;;17.00;77.40;;;;;;5079873;28;20024;-74
2021/06/15 05:10:12;;;;;;;0.15;0.15;;;17.20;76.80;;;;;;5055445;28;20036;-73
2021/06/15 05:12:43;;;;;;;0.20;0.20;;;17.30;76.30;;;;;;5055546;28;20141;-74
2021/06/15 05:15:12;;;;;;;0.10;0.10;;;17.40;76.10;;;;;;5055334;28;20028;-73
2021/06/15 05:17:41;;;;;;;0.22;0.22;;;17.50;76.50;;;;;;5055231;28;20029;-73
2021/06/15 05:20:08;;;;;;;0.15;0.15;;;17.50;77.10;;;;;;5055251;28;20017;-73
2021/06/15 05:22:39;;;;;;;0.10;0.10;;;17.60;77.40;;;;;;5073218;28;20020;-73
2021/06/15 05:25:09;;;;;;;0.10;0.10;;;17.70;77.30;;;;;;5055511;28;20039;-73
2021/06/15 05:27:35;;;;;;;0.17;0.17;;;17.60;78.00;;;;;;5072992;28;20044;-74
2021/06/15 05:30:03;;;;;;;0.10;0.10;;;17.70;78.90;;;;;;5073301;28;20021;-73
2021/06/15 05:32:30;;;;;;;0.10;0.10;;;17.90;77.70;;;;;;5055209;28;20510;-73
2021/06/15 05:34:56;;;;;;;0.10;0.10;;;18.10;76.50;;;;;;5054996;28;20043;-73
2021/06/15 05:37:23;;;;;;;0.25;0.25;;;18.20;75.60;;;;;;5072789;28;20027;-73
2021/06/15 05:39:49;;;;;;;0.10;0.10;;;18.10;77.20;;;;;;5073018;28;20031;-74
2021/06/15 05:42:15;;;;;;;0.10;0.10;;;18.30;77.20;;;;;;5072918;28;20412;-73
2021/06/15 05:44:41;;;;;;;0.13;0.13;;;18.50;77.10;;;;;;5055098;28;20032;-73
2021/06/15 05:47:08;;;;;;;0.10;0.10;;;18.60;77.00;;;;;;5072711;28;20029;-74
2021/06/15 05:49:33;;;;;;;0.10;0.10;;;18.70;77.10;;;;;;5072114;28;20016;-73
2021/06/15 05:52:11;;;;;;;0.65;0.65;;;18.80;76.90;;;;;;5072805;28;20426;-74
2021/06/15 05:54:38;;;;;;;0.20;0.20;;;19.00;75.80;;;;;;5072579;28;20029;-74
2021/06/15 05:57:05;;;;;;;0.10;0.10;;;19.00;75.60;;;;;;5054643;28;20032;-73
2021/06/15 05:59:31;;;;;;;0.10;0.10;;;19.10;74.70;;;;;;5054312;28;20104;-73
2021/06/15 06:01:57;;;;;;;0.10;0.10;;;19.20;74.80;;;;;;5054215;28;20027;-74
2021/06/15 06:09:54;;;;;;;0.10;0.10;;;19.50;74.70;;;;;;5054293;28;20487;-74
2021/06/15 06:12:20;;;;;;;0.10;0.10;;;19.60;73.30;;;;;;5053977;28;20138;-74
2021/06/15 06:14:45;;;;;;;0.10;0.10;;;19.70;72.40;;;;;;5082597;28;20028;-74
2021/06/15 06:17:11;;;;;;;0.10;0.10;;;19.70;71.90;;;;;;5072001;28;20021;-73
2021/06/15 06:19:38;;;;;;;0.10;0.10;;;19.90;70.70;;;;;;5054164;28;20574;-74
2021/06/15 06:22:04;;;;;;;0.10;0.10;;;20.10;69.70;;;;;;5054186;28;20024;-74
2021/06/15 06:24:30;;;;;;;0.10;0.10;;;20.20;69.80;;;;;;5054202;28;20463;-73
2021/06/15 06:26:56;;;;;;;0.10;0.10;;;20.30;68.60;;;;;;5072037;28;20107;-73
2021/06/15 06:29:22;;;;;;;0.10;0.10;;;20.50;67.20;;;;;;5078093;28;20026;-73
2021/06/15 06:31:48;;;;;;;0.10;0.10;;;20.60;68.70;;;;;;5091759;28;20039;-73
2021/06/15 06:34:14;;;;;;;0.10;0.10;;;20.60;67.50;;;;;;5092240;28;20085;-74
2021/06/15 06:36:40;;;;;;;0.10;0.10;;;20.80;65.20;;;;;;5092004;28;20020;-74
2021/06/15 06:39:08;;;;;;;0.10;0.10;;;21.00;63.00;;;;;;5073450;28;20035;-74
2021/06/15 06:41:35;;;;;;;0.10;0.10;;;21.20;63.20;;;;;;5073664;28;20103;-74
2021/06/15 06:44:01;;;;;;;0.10;0.10;;;21.30;60.00;;;;;;5071876;28;20020;-73
2021/06/15 06:46:27;;;;;;;0.10;0.10;;;21.40;59.30;;;;;;5071292;28;20024;-74
2021/06/15 06:48:53;;;;;;;0.10;0.10;;;21.50;58.50;;;;;;5072394;28;20028;-74
2021/06/15 06:51:19;;;;;;;0.10;0.10;;;21.70;58.40;;;;;;5073135;28;20052;-74
2021/06/15 06:53:45;;;;;;;0.10;0.10;;;21.80;57.70;;;;;;5073620;28;20118;-74
2021/06/15 06:56:11;;;;;;;0.10;0.10;;;21.90;59.00;;;;;;5091685;28;20032;-74
2021/06/15 06:58:37;;;;;;;0.05;0.05;;;22.10;58.80;;;;;;5081335;28;20373;-76
2021/06/15 07:01:03;;;;;;;0.10;0.10;;;22.30;59.30;;;;;;5064098;28;20028;-75
2021/06/15 07:03:30;;;;;;;0.40;0.40;;;22.40;59.90;;;;;;5063191;28;20027;-74
2021/06/15 07:05:56;;;;;;;0.00;0.00;;;22.20;61.00;;;;;;5085291;28;20024;-75
2021/06/15 07:08:22;;;;;;;0.20;0.20;;;22.30;58.70;;;;;;5078911;28;20033;-75
2021/06/15 07:10:47;;;;;;;0.00;0.00;;;22.20;57.90;;;;;;5052926;28;20056;-74
2021/06/15 07:13:13;;;;;;;0.00;0.00;;;22.30;58.00;;;;;;5057511;28;20388;-75
2021/06/15 07:15:39;;;;;;;1.02;1.02;;;22.40;58.50;;;;;;5043119;28;20032;-75
2021/06/15 07:18:05;;;;;;;0.10;0.10;;;22.50;57.90;;;;;;5081052;28;20027;-75
2021/06/15 07:20:31;;;;;;;0.15;0.15;;;22.60;57.40;;;;;;5082405;28;20070;-74
2021/06/15 07:22:57;;;;;;;0.10;0.10;;;22.70;58.00;;;;;;5072105;28;20086;-75
2021/06/15 07:25:22;;;;;;;0.20;0.20;;;22.80;57.40;;;;;;5061220;28;20497;-75
2021/06/15 07:27:48;;;;;;;0.00;0.00;;;22.90;57.40;;;;;;5094327;28;20032;-75
2021/06/15 07:30:15;;;;;;;0.10;0.10;;;23.00;56.50;;;;;;5049554;28;20131;-75
2021/06/15 07:32:41;;;;;;;0.25;0.25;;;23.20;56.00;;;;;;5065510;28;20513;-74
2021/06/15 07:35:08;;;;;;;0.10;0.10;;;23.20;55.50;;;;;;5086051;28;20020;-74
2021/06/15 07:37:33;;;;;;;0.10;0.10;;;23.30;55.50;;;;;;5079701;28;20194;-75
2021/06/15 07:39:59;;;;;;;0.00;0.00;;;23.60;56.10;;;;;;5062032;28;20020;-75
2021/06/15 07:42:29;;;;;;;0.00;0.00;;;23.70;54.80;;;;;;5049692;28;20426;-75
2021/06/15 07:44:55;;;;;;;0.10;0.10;;;23.80;54.50;;;;;;5077013;28;20349;-75
2021/06/15 07:47:21;;;;;;;0.05;0.05;;;23.90;54.90;;;;;;5060901;28;20074;-75
2021/06/15 07:49:46;;;;;;;0.10;0.10;;;24.10;54.90;;;;;;5068057;28;20024;-75
2021/06/15 07:52:12;;;;;;;0.10;0.10;;;24.20;54.30;;;;;;5071884;28;20058;-75
2021/06/15 07:54:41;;;;;;;0.08;0.08;;;24.40;53.20;;;;;;5059328;28;20020;-75
2021/06/15 07:57:08;;;;;;;0.13;0.13;;;24.30;53.30;;;;;;5046306;28;20027;-75
2021/06/15 07:59:34;;;;;;;0.00;0.00;;;24.30;51.80;;;;;;5082596;28;20017;-75
2021/06/15 08:02:00;;;;;;;0.10;0.10;;;24.50;52.20;;;;;;5062767;28;20031;-75
2021/06/15 08:04:26;;;;;;;0.00;0.00;;;24.70;51.90;;;;;;5071844;28;20480;-75
2021/06/15 08:06:51;;;;;;;0.20;0.20;;;24.80;51.00;;;;;;5065392;28;20100;-75
2021/06/15 08:09:17;;;;;;;0.00;0.00;;;25.10;50.60;;;;;;5060460;28;20024;-75
2021/06/15 08:11:43;;;;;;;0.10;0.10;;;25.20;49.60;;;;;;5083933;28;20024;-74
2021/06/15 08:14:09;;;;;;;0.00;0.00;;;25.20;49.30;;;;;;5055483;28;20033;-75
2021/06/15 08:16:34;;;;;;;0.00;0.00;;;25.30;49.00;;;;;;5060263;28;20032;-75
2021/06/15 08:19:00;;;;;;;0.10;0.10;;;25.40;48.80;;;;;;5075992;28;20051;-75
2021/06/15 08:21:26;;;;;;;0.10;0.10;;;25.70;49.10;;;;;;5084547;28;20028;-75
2021/06/15 08:23:52;;;;;;;1.55;0.85;;;25.60;48.50;;;;;;5066768;28;20024;-75
2021/06/15 08:26:18;;;;;;;0.00;0.00;;;25.60;47.70;;;;;;5066582;28;20109;-75
2021/06/15 08:28:44;;;;;;;0.10;0.10;;;25.90;47.30;;;;;;5081446;28;20054;-75
2021/06/15 08:31:10;;;;;;;0.00;0.00;;;25.90;46.70;;;;;;5077105;28;20036;-74
2021/06/15 08:33:35;;;;;;;0.03;0.03;;;25.70;47.00;;;;;;5072963;28;20024;-75
2021/06/15 08:36:02;;;;;;;0.00;0.00;;;25.80;47.10;;;;;;5087666;28;20064;-75
2021/06/15 08:38:28;;;;;;;0.00;0.00;;;26.10;46.90;;;;;;5076155;28;20129;-75
2021/06/15 08:40:54;;;;;;;0.20;0.10;;;26.20;46.50;;;;;;5068489;28;20049;-75
2021/06/15 08:43:21;;;;;;;0.17;0.17;;;26.40;46.40;;;;;;5090471;28;20043;-75
2021/06/15 08:45:48;;;;;;;0.03;0.03;;;26.80;45.60;;;;;;5046756;28;20480;-75
2021/06/15 08:48:14;;;;;;;0.00;0.00;;;27.00;45.00;;;;;;5065190;28;20380;-75
2021/06/15 08:50:40;;;;;;;0.03;0.00;;;27.00;44.40;;;;;;5036905;28;20024;-75
2021/06/15 08:53:08;;;;;;;0.00;0.00;;;27.00;45.30;;;;;;5083710;28;20024;-75
2021/06/15 08:55:34;;;;;;;0.00;0.00;;;27.30;44.60;;;;;;5055568;28;20436;-75
2021/06/15 08:58:20;;;;;;;0.22;0.22;;;27.60;44.30;;;;;;5060793;28;20066;-76
2021/06/15 09:00:45;;;;;;;0.35;0.35;;;27.70;43.70;;;;;;5047881;28;20460;-75
2021/06/15 09:03:14;;;;;;;0.00;0.00;;;27.80;42.90;;;;;;5072566;28;20040;-75
2021/06/15 09:05:41;;;;;;;0.00;0.00;;;28.00;43.50;;;;;;5054331;28;20024;-76
2021/06/15 09:08:09;;;;;;;0.10;0.03;;;28.10;43.50;;;;;;5062714;28;20016;-75
2021/06/15 09:10:48;;;;;;;0.20;0.20;;;27.80;44.20;;;;;;5082324;28;20116;-73
2021/06/15 09:13:34;;;;;;;0.55;0.15;;;27.50;45.40;;;;;;5066864;28;20081;-74
2021/06/15 09:16:16;;;;;;;0.03;0.03;;;27.70;42.50;;;;;;5061579;28;20029;-75
2021/06/15 09:18:42;;;;;;;;;;;27.60;43.10;;;;;;5077063;28;20060;-75
2021/06/15 09:21:07;;;;;;;0.17;0.17;;;27.80;42.70;;;;;;5076482;28;19951;-75
2021/06/15 09:23:35;;;;;;;0.00;0.00;;;28.30;41.70;;;;;;5081019;28;20020;-75
2021/06/15 09:26:02;;;;;;;0.00;0.00;;;28.60;41.90;;;;;;5053900;28;20035;-75
2021/06/15 09:28:28;;;;;;;0.10;0.10;;;28.80;41.20;;;;;;5068255;28;20031;-75
2021/06/15 09:31:01;;;;;;;0.00;0.00;;;28.50;41.60;;;;;;5072556;28;20040;-75
2021/06/15 09:33:37;;;;;;;0.80;0.52;;;28.70;41.90;;;;;;5063664;28;20464;-75
2021/06/15 09:36:15;;;;;;;1.00;0.55;;;28.70;43.00;;;;;;5053339;28;20031;-75
2021/06/15 09:38:54;;;;;;;1.45;1.35;;;28.50;42.00;;;;;;5060888;28;20401;-74
2021/06/15 09:41:44;;;;;;;0.15;0.15;;;28.40;41.70;;;;;;5060353;28;20084;-75
2021/06/15 09:44:22;;;;;;;0.00;0.00;;;28.40;41.00;;;;;;5064806;28;20674;-74
2021/06/15 09:46:54;;;;;;;0.00;0.00;;;28.90;41.70;;;;;;5076127;28;20024;-75
2021/06/15 09:49:37;;;;;;;1.13;0.70;;;29.10;41.20;;;;;;5090525;28;20016;-75
2021/06/15 09:52:21;;;;;;;0.13;0.13;;;29.30;38.80;;;;;;5053901;28;20033;-75
2021/06/15 09:55:01;;;;;;;0.00;0.00;;;29.40;39.10;;;;;;5070866;28;20052;-75
2021/06/15 09:57:32;;;;;;;0.00;0.00;;;29.40;40.10;;;;;;5071972;28;20387;-75
2021/06/15 10:00:05;;;;;;;0.03;0.03;;;29.40;40.00;;;;;;5073684;28;20090;-75
2021/06/15 10:02:32;;;;;;;6.40;0.55;;;29.30;40.80;;;;;;5076169;28;20035;-74
2021/06/15 10:05:19;;;;;;;0.00;0.00;;;29.50;40.10;;;;;;5071534;28;20024;-74
2021/06/15 10:07:45;;;;;;;0.00;0.00;;;29.80;40.60;;;;;;5081817;28;20020;-74
2021/06/15 10:10:11;;;;;;;0.10;0.10;;;29.70;39.20;;;;;;5066035;28;20016;-74
2021/06/15 10:12:37;;;;;;;0.03;0.00;;;29.90;40.30;;;;;;5061635;28;20017;-74
2021/06/15 10:15:04;;;;;;;0.32;0.32;;;30.00;39.30;;;;;;5079984;28;20025;-74
2021/06/15 10:17:30;;;;;;;0.35;0.20;;;30.00;38.80;;;;;;5082508;28;20020;-74
2021/06/15 10:19:56;;;;;;;0.00;0.00;;;29.80;39.90;;;;;;5065102;28;20137;-74
2021/06/15 10:22:22;;;;;;;0.05;0.05;;;30.20;40.00;;;;;;5081362;28;20032;-74
2021/06/15 10:24:49;;;;;;;0.38;0.20;;;30.30;38.10;;;;;;5081466;28;20023;-74
2021/06/15 10:27:15;;;;;;;1.17;0.20;;;30.30;38.80;;;;;;5069214;28;20024;-74
2021/06/15 10:29:48;;;;;;;0.00;0.00;;;30.20;38.40;;;;;;5091507;28;20016;-74
2021/06/15 10:32:22;;;;;;;0.00;0.00;;;30.40;38.80;;;;;;5083366;28;20037;-74
2021/06/15 10:34:53;;;;;;;0.00;0.00;;;30.80;37.30;;;;;;5062668;28;20020;-75
2021/06/15 10:37:31;;;;;;;0.00;0.00;;;30.90;38.20;;;;;;5065387;28;20100;-74
2021/06/15 10:39:57;;;;;;;0.00;0.00;;;31.10;38.00;;;;;;5071543;28;20028;-75
2021/06/15 10:42:23;;;;;;;0.00;0.00;;;31.00;36.80;;;;;;5065536;28;20054;-74
2021/06/15 10:45:20;;;;;;;0.20;0.20;;;30.70;37.30;;;;;;5052998;28;20052;-74
2021/06/15 10:48:04;;;;;;;0.65;0.63;;;31.10;36.60;;;;;;5086660;28;20446;-74
2021/06/15 10:50:44;;;;;;;0.25;0.25;;;30.90;36.10;;;;;;5083284;28;20012;-74
2021/06/15 10:53:11;;;;;;;0.00;0.00;;;30.70;36.50;;;;;;5068730;28;20445;-74
2021/06/15 10:55:50;;;;;;;0.10;0.10;;;30.40;36.20;;;;;;5090829;28;20027;-74
2021/06/15 10:58:34;;;;;;;0.00;0.00;;;30.70;37.20;;;;;;5081878;28;20160;-74
2021/06/15 11:01:18;;;;;;;0.00;0.00;;;31.00;36.50;;;;;;5082558;28;20081;-74
2021/06/15 11:03:46;;;;;;;2.63;1.00;;;31.40;36.30;;;;;;5081941;28;20024;-74
2021/06/15 11:06:13;;;;;;;0.20;0.20;;;31.10;36.50;;;;;;5078531;28;20172;-74
2021/06/15 11:08:39;;;;;;;0.45;0.45;;;30.60;35.60;;;;;;5078249;28;20020;-73
2021/06/15 11:11:20;;;;;;;0.00;0.00;;;30.90;35.20;;;;;;5082057;28;20056;-74
2021/06/15 11:13:48;;;;;;;0.00;0.00;;;31.00;35.50;;;;;;5074743;28;20036;-74
2021/06/15 11:16:33;;;;;;;0.40;0.40;;;31.30;36.30;;;;;;5075725;28;20073;-74
2021/06/15 11:19:08;;;;;;;0.00;0.00;;;31.60;35.00;;;;;;5066887;28;20016;-74
2021/06/15 11:21:48;;;;;;;0.00;0.00;;;31.20;35.20;;;;;;5064054;28;20103;-74
2021/06/15 11:24:20;;;;;;;0.00;0.00;;;31.50;35.50;;;;;;5067971;28;20077;-74
2021/06/15 11:26:49;;;;;;;0.30;0.10;;;31.50;35.60;;;;;;5071579;28;20041;-74
2021/06/15 11:29:35;;;;;;;0.10;0.10;;;31.60;35.40;;;;;;5060079;28;20161;-74
2021/06/15 11:32:25;;;;;;;9.20;0.68;;;31.10;35.10;;;;;;5057175;28;20508;-73
2021/06/15 11:35:01;;;;;;;0.00;0.00;;;31.20;37.40;;;;;;5050613;28;20496;-74
2021/06/15 11:37:37;;;;;;;0.20;0.20;;;31.20;35.50;;;;;;5057890;28;20032;-74
2021/06/15 11:40:28;;;;;;;0.00;0.00;;;31.30;34.90;;;;;;5056631;28;20448;-74
2021/06/15 11:43:15;;;;;;;0.00;0.00;;;31.50;35.40;;;;;;5054940;28;20024;-74
2021/06/15 11:45:49;;;;;;;0.00;0.00;;;31.00;35.10;;;;;;5082452;28;20482;-73
2021/06/15 11:48:33;;;;;;;0.43;0.32;;;30.90;36.50;;;;;;5077030;28;20024;-74
2021/06/15 11:51:04;;;;;;;0.00;0.00;;;30.90;35.40;;;;;;5072101;28;20031;-74
2021/06/15 11:53:32;;;;;;;0.45;0.45;;;30.80;35.60;;;;;;5063581;28;20506;-74
2021/06/15 11:56:02;;;;;;;0.10;0.10;;;30.40;36.60;;;;;;5071730;28;20036;-74
2021/06/15 11:58:34;;;;;;;0.05;0.05;;;30.40;36.40;;;;;;5080925;28;20031;-74
2021/06/15 12:01:10;;;;;;;1.13;0.90;;;30.20;35.80;;;;;;5078463;28;20331;-74
2021/06/15 12:03:38;;;;;;;2.83;0.40;;;30.10;36.50;;;;;;5060705;28;20086;-74
2021/06/15 12:06:05;;;;;;;0.00;0.00;;;29.70;37.10;;;;;;5081090;28;20035;-76
2021/06/15 12:08:32;;;;;;;0.30;0.30;;;29.80;37.00;;;;;;5064882;28;20025;-74
2021/06/15 12:10:59;;;;;;;0.00;0.00;;;29.90;36.80;;;;;;5074457;28;20111;-74
2021/06/15 12:13:27;;;;;;;0.10;0.10;;;30.10;37.00;;;;;;5088671;28;20035;-74
2021/06/15 12:15:58;;;;;;;0.05;0.05;;;30.20;36.90;;;;;;5074046;28;20020;-74
2021/06/15 12:18:28;;;;;;;0.00;0.00;;;30.10;36.60;;;;;;5084049;28;20028;-73
2021/06/15 12:21:22;;;;;;;0.10;0.10;;;30.20;36.40;;;;;;5083743;28;20059;-74
2021/06/15 12:23:59;;;;;;;0.00;0.00;;;30.20;35.70;;;;;;5050740;28;20024;-74
2021/06/15 12:26:40;;;;;;;0.10;0.10;;;29.90;35.80;;;;;;5038968;28;20029;-74
2021/06/15 12:29:16;;;;;;;0.03;0.03;;;29.90;35.60;;;;;;5076407;28;20043;-74
2021/06/15 12:31:43;;;;;;;0.00;0.00;;;29.70;36.20;;;;;;5089656;28;20173;-74
2021/06/15 12:34:10;;;;;;;0.22;0.22;;;29.70;35.00;;;;;;5076741;28;20029;-74
2021/06/15 12:36:38;;;;;;;0.10;0.10;;;29.50;35.40;;;;;;5089574;28;20067;-74
2021/06/15 12:39:14;;;;;;;0.10;0.10;;;29.50;35.70;;;;;;5081697;28;20013;-74
2021/06/15 12:41:44;;;;;;;0.13;0.13;;;29.50;36.20;;;;;;5081453;28;20507;-75
2021/06/15 12:44:10;;;;;;;0.00;0.00;;;29.50;35.40;;;;;;5086277;28;20100;-75
2021/06/15 12:46:37;;;;;;;0.15;0.15;;;29.50;36.00;;;;;;5072998;28;20389;-73
2021/06/15 12:49:14;;;;;;;0.00;0.00;;;29.70;35.50;;;;;;5056690;28;20506;-74
2021/06/15 12:51:47;;;;;;;0.00;0.00;;;29.70;34.70;;;;;;5065928;28;20516;-73
2021/06/15 12:54:18;;;;;;;0.43;0.10;;;29.70;35.10;;;;;;5073424;28;20056;-74
2021/06/15 12:57:04;;;;;;;0.00;0.00;;;29.60;35.00;;;;;;5080099;28;20025;-74
2021/06/15 12:59:36;;;;;;;0.00;0.00;;;29.60;35.20;;;;;;5074760;28;20056;-74
2021/06/15 13:02:18;;;;;;;0.00;0.00;;;29.70;34.80;;;;;;5092589;28;20475;-73
2021/06/15 13:04:46;;;;;;;0.00;0.00;;;29.60;35.00;;;;;;5081831;28;20488;-74
2021/06/15 13:07:13;;;;;;;0.03;0.03;;;29.50;35.80;;;;;;5069881;28;20399;-73
2021/06/15 13:09:39;;;;;;;0.00;0.00;;;29.30;35.20;;;;;;5088313;28;20035;-74